This is the latest recevied weather packets stored in our database for station/object SP5IZJ-2. If no packets are shown the sender has not sent any weather packets the latest 10 day(s).
| Time | Temp. | Humidity | Pressure | Rain* | Wind** | Luminosity | Snow |
|---|---|---|---|---|---|---|---|
| 1787458275 | 12.22° C | 91% | 1008.7 hPa | 0 mm | - | - | - |
| 1787457427 | 12.22° C | 91% | 1008.7 hPa | 0 mm | - | - | - |
| 1787457047 | 11.67° C | 91% | 1008.6 hPa | 0 mm | - | - | - |
| 1787457015 | 11.67° C | 91% | 1008.6 hPa | 0 mm | - | - | - |
| 1787456187 | 100° C | 100% | 0 hPa | 0 mm | - | - | - |
| 1787455752 | 11.67° C | 91% | 1008.4 hPa | 0 mm | - | - | - |
| 1787454908 | 12.22° C | 90% | 1008.2 hPa | 0 mm | - | - | - |
| 1787454492 | 12.22° C | 90% | 1008.1 hPa | 0 mm | - | - | - |
| 1787454076 | 12.22° C | 90% | 1008 hPa | 0 mm | - | - | - |
| 1787453652 | 12.22° C | 90% | 1008 hPa | 0 mm | - | - | - |
| 1787453229 | 12.22° C | 90% | 1008 hPa | 0 mm | - | - | - |
| 1787452819 | 100° C | 100% | 0 hPa | 0 mm | - | - | - |
| 1787452005 | 12.78° C | 90% | 1008 hPa | 0 mm | - | - | - |
| 1787451973 | 12.78° C | 90% | 1008 hPa | 0 mm | - | - | - |
| 1787451134 | 12.78° C | 90% | 1007.9 hPa | 0 mm | - | - | - |
| 1787450298 | 12.78° C | 90% | 1007.9 hPa | 0 mm | - | - | - |
| 1787449870 | 12.78° C | 90% | 1008 hPa | 0 mm | - | - | - |
| 1787449450 | 12.78° C | 90% | 1008.1 hPa | 0 mm | - | - | - |
| 1787448628 | 12.78° C | 90% | 1007.9 hPa | 0 mm | - | - | - |
| 1787448191 | 12.78° C | 90% | 1007.9 hPa | 0 mm | - | - | - |
| 1787447775 | 12.78° C | 90% | 1007.7 hPa | 0 mm | - | - | - |
| 1787447351 | 13.33° C | 90% | 1007.6 hPa | 0 mm | - | - | - |
| 1787446931 | 13.33° C | 90% | 1007.6 hPa | 0 mm | - | - | - |
| 1787446532 | 13.33° C | 90% | 1007.6 hPa | 0 mm | - | - | - |
| 1787445672 | 13.33° C | 91% | 1007.5 hPa | 0 mm | - | - | - |
* Rain latest hour (hover to see other rain measurements)
** Current wind speed in m/s (hover to see current wind gust speed)